sensor_id;sensor_type;location;lat;lon;timestamp;pressure;altitude;pressure_sealevel;temperature;humidity
18697;BME280;22617;43.690;27.956;2023-02-02T00:01:25;98691.41;;;1.78;79.83
18697;BME280;22617;43.690;27.956;2023-02-02T00:06:31;98688.84;;;1.78;79.81
18697;BME280;22617;43.690;27.956;2023-02-02T00:11:35;98679.50;;;1.80;80.07
18697;BME280;22617;43.690;27.956;2023-02-02T00:16:41;98677.78;;;1.81;79.74
18697;BME280;22617;43.690;27.956;2023-02-02T00:21:47;98679.53;;;1.82;80.12
18697;BME280;22617;43.690;27.956;2023-02-02T00:26:52;98680.47;;;1.85;80.18
18697;BME280;22617;43.690;27.956;2023-02-02T00:31:56;98677.09;;;1.86;80.11
18697;BME280;22617;43.690;27.956;2023-02-02T00:37:01;98667.97;;;1.99;79.92
18697;BME280;22617;43.690;27.956;2023-02-02T00:42:04;98662.16;;;2.06;79.77
18697;BME280;22617;43.690;27.956;2023-02-02T00:47:08;98662.25;;;2.10;78.99
18697;BME280;22617;43.690;27.956;2023-02-02T00:52:13;98660.41;;;2.06;79.23
18697;BME280;22617;43.690;27.956;2023-02-02T00:57:16;98653.53;;;2.04;79.76
18697;BME280;22617;43.690;27.956;2023-02-02T01:02:20;98663.13;;;2.11;79.94
18697;BME280;22617;43.690;27.956;2023-02-02T01:07:25;98666.66;;;2.16;80.02
18697;BME280;22617;43.690;27.956;2023-02-02T01:12:30;98662.31;;;2.13;80.13
18697;BME280;22617;43.690;27.956;2023-02-02T01:17:34;98658.25;;;2.23;80.46
18697;BME280;22617;43.690;27.956;2023-02-02T01:22:39;98663.16;;;2.12;80.45
18697;BME280;22617;43.690;27.956;2023-02-02T01:27:43;98645.84;;;2.05;80.87
18697;BME280;22617;43.690;27.956;2023-02-02T01:32:47;98635.63;;;2.08;80.95
18697;BME280;22617;43.690;27.956;2023-02-02T01:37:52;98634.72;;;2.06;81.20
18697;BME280;22617;43.690;27.956;2023-02-02T01:42:55;98634.75;;;2.08;81.47
18697;BME280;22617;43.690;27.956;2023-02-02T01:47:59;98639.28;;;2.18;80.78
18697;BME280;22617;43.690;27.956;2023-02-02T01:53:05;98638.56;;;2.24;80.67
18697;BME280;22617;43.690;27.956;2023-02-02T01:58:11;98629.94;;;2.22;80.42
18697;BME280;22617;43.690;27.956;2023-02-02T02:03:18;98627.41;;;2.23;80.37
18697;BME280;22617;43.690;27.956;2023-02-02T02:08:27;98632.41;;;2.17;80.49
18697;BME280;22617;43.690;27.956;2023-02-02T02:13:34;98629.16;;;2.24;80.34
18697;BME280;22617;43.690;27.956;2023-02-02T02:19:55;98624.91;;;2.26;80.11
18697;BME280;22617;43.690;27.956;2023-02-02T02:25:40;98616.06;;;2.13;80.25
18697;BME280;22617;43.690;27.956;2023-02-02T02:36:58;98634.91;;;2.14;79.69
18697;BME280;22617;43.690;27.956;2023-02-02T02:42:08;98640.81;;;2.10;79.54
18697;BME280;22617;43.690;27.956;2023-02-02T02:47:14;98623.00;;;2.17;79.74
18697;BME280;22617;43.690;27.956;2023-02-02T02:52:20;98615.91;;;2.06;79.24
18697;BME280;22617;43.690;27.956;2023-02-02T02:57:38;98614.91;;;2.01;79.52
18697;BME280;22617;43.690;27.956;2023-02-02T03:02:48;98614.00;;;1.99;79.65
18697;BME280;22617;43.690;27.956;2023-02-02T03:08:04;98611.28;;;1.93;79.96
18697;BME280;22617;43.690;27.956;2023-02-02T03:13:12;98617.88;;;1.82;80.07
18697;BME280;22617;43.690;27.956;2023-02-02T03:18:18;98621.94;;;1.72;80.04
18697;BME280;22617;43.690;27.956;2023-02-02T03:23:24;98623.63;;;1.71;80.12
18697;BME280;22617;43.690;27.956;2023-02-02T03:28:28;98608.09;;;1.67;80.30
18697;BME280;22617;43.690;27.956;2023-02-02T03:33:34;98613.94;;;1.61;80.34
18697;BME280;22617;43.690;27.956;2023-02-02T03:38:40;98602.75;;;1.59;80.30
18697;BME280;22617;43.690;27.956;2023-02-02T03:43:43;98601.72;;;1.51;80.52
18697;BME280;22617;43.690;27.956;2023-02-02T03:48:47;98599.22;;;1.54;80.74
18697;BME280;22617;43.690;27.956;2023-02-02T03:53:52;98593.25;;;1.55;81.12
18697;BME280;22617;43.690;27.956;2023-02-02T03:58:55;98609.81;;;1.66;80.76
18697;BME280;22617;43.690;27.956;2023-02-02T04:03:59;98611.09;;;1.51;80.65
18697;BME280;22617;43.690;27.956;2023-02-02T04:09:04;98609.31;;;1.47;80.91
18697;BME280;22617;43.690;27.956;2023-02-02T04:14:08;98617.00;;;1.47;81.15
18697;BME280;22617;43.690;27.956;2023-02-02T04:19:12;98612.91;;;1.55;81.44
18697;BME280;22617;43.690;27.956;2023-02-02T04:24:17;98614.22;;;1.38;81.16
18697;BME280;22617;43.690;27.956;2023-02-02T04:29:21;98623.56;;;1.36;81.16
18697;BME280;22617;43.690;27.956;2023-02-02T04:34:24;98619.13;;;1.30;81.43
18697;BME280;22617;43.690;27.956;2023-02-02T04:39:30;98620.88;;;1.31;81.65
18697;BME280;22617;43.690;27.956;2023-02-02T04:44:33;98634.69;;;1.36;81.43
18697;BME280;22617;43.690;27.956;2023-02-02T04:49:37;98631.88;;;1.27;81.34
18697;BME280;22617;43.690;27.956;2023-02-02T04:54:42;98636.25;;;1.31;81.54
18697;BME280;22617;43.690;27.956;2023-02-02T04:59:45;98638.47;;;1.17;81.56
18697;BME280;22617;43.690;27.956;2023-02-02T05:04:48;98628.28;;;1.20;82.09
18697;BME280;22617;43.690;27.956;2023-02-02T05:09:53;98630.84;;;1.20;82.34
18697;BME280;22617;43.690;27.956;2023-02-02T05:14:57;98634.97;;;1.14;82.74
18697;BME280;22617;43.690;27.956;2023-02-02T05:20:02;98630.94;;;1.23;83.50
18697;BME280;22617;43.690;27.956;2023-02-02T05:25:08;98624.81;;;1.18;83.55
18697;BME280;22617;43.690;27.956;2023-02-02T05:30:13;98634.22;;;1.18;83.78
18697;BME280;22617;43.690;27.956;2023-02-02T05:35:17;98632.69;;;1.24;84.22
18697;BME280;22617;43.690;27.956;2023-02-02T05:40:22;98646.41;;;1.26;84.46
18697;BME280;22617;43.690;27.956;2023-02-02T05:45:25;98648.84;;;1.22;84.51
18697;BME280;22617;43.690;27.956;2023-02-02T05:50:29;98650.84;;;1.32;84.95
18697;BME280;22617;43.690;27.956;2023-02-02T05:55:41;98653.59;;;1.40;84.84
18697;BME280;22617;43.690;27.956;2023-02-02T06:00:44;98652.06;;;1.46;84.80
18697;BME280;22617;43.690;27.956;2023-02-02T06:05:48;98649.22;;;1.68;84.69
18697;BME280;22617;43.690;27.956;2023-02-02T06:10:53;98654.56;;;1.77;84.38
18697;BME280;22617;43.690;27.956;2023-02-02T06:15:57;98654.94;;;1.91;84.22
18697;BME280;22617;43.690;27.956;2023-02-02T06:21:02;98657.84;;;2.05;83.65
18697;BME280;22617;43.690;27.956;2023-02-02T06:26:08;98658.72;;;2.07;83.10
18697;BME280;22617;43.690;27.956;2023-02-02T06:31:11;98654.50;;;2.09;83.20
18697;BME280;22617;43.690;27.956;2023-02-02T06:36:15;98650.59;;;2.26;82.91
18697;BME280;22617;43.690;27.956;2023-02-02T06:41:20;98666.44;;;2.43;82.16
18697;BME280;22617;43.690;27.956;2023-02-02T06:46:24;98657.34;;;2.58;81.75
18697;BME280;22617;43.690;27.956;2023-02-02T06:51:27;98664.31;;;2.62;81.30
18697;BME280;22617;43.690;27.956;2023-02-02T06:56:32;98668.03;;;2.77;81.51
18697;BME280;22617;43.690;27.956;2023-02-02T07:01:35;98670.06;;;2.91;80.68
18697;BME280;22617;43.690;27.956;2023-02-02T07:06:39;98676.03;;;2.90;80.44
18697;BME280;22617;43.690;27.956;2023-02-02T07:11:44;98682.25;;;3.00;80.86
18697;BME280;22617;43.690;27.956;2023-02-02T07:16:48;98679.25;;;3.21;80.98
18697;BME280;22617;43.690;27.956;2023-02-02T07:21:51;98686.31;;;3.32;80.47
18697;BME280;22617;43.690;27.956;2023-02-02T07:26:56;98699.53;;;3.49;80.14
18697;BME280;22617;43.690;27.956;2023-02-02T07:32:00;98696.97;;;3.50;79.53
18697;BME280;22617;43.690;27.956;2023-02-02T07:37:03;98698.16;;;3.68;78.84
18697;BME280;22617;43.690;27.956;2023-02-02T07:42:09;98700.28;;;3.88;78.84
18697;BME280;22617;43.690;27.956;2023-02-02T07:47:15;98707.56;;;4.12;77.75
18697;BME280;22617;43.690;27.956;2023-02-02T07:52:19;98701.13;;;4.42;77.68
18697;BME280;22617;43.690;27.956;2023-02-02T07:57:24;98697.84;;;4.52;76.90
18697;BME280;22617;43.690;27.956;2023-02-02T08:02:28;98705.13;;;4.78;76.28
18697;BME280;22617;43.690;27.956;2023-02-02T08:07:33;98711.22;;;4.83;76.30
18697;BME280;22617;43.690;27.956;2023-02-02T08:12:38;98708.13;;;5.10;76.55
18697;BME280;22617;43.690;27.956;2023-02-02T08:17:43;98713.28;;;5.10;75.07
18697;BME280;22617;43.690;27.956;2023-02-02T08:22:50;98696.09;;;5.12;74.77
18697;BME280;22617;43.690;27.956;2023-02-02T08:27:55;98700.78;;;5.44;75.00
18697;BME280;22617;43.690;27.956;2023-02-02T08:33:02;98713.69;;;5.41;73.89
18697;BME280;22617;43.690;27.956;2023-02-02T08:38:05;98716.69;;;5.80;74.23
18697;BME280;22617;43.690;27.956;2023-02-02T08:43:10;98723.16;;;6.22;72.49
18697;BME280;22617;43.690;27.956;2023-02-02T08:48:17;98723.47;;;6.63;72.34
18697;BME280;22617;43.690;27.956;2023-02-02T08:53:23;98720.91;;;6.66;70.32
18697;BME280;22617;43.690;27.956;2023-02-02T08:58:29;98719.38;;;6.96;70.51
18697;BME280;22617;43.690;27.956;2023-02-02T09:03:33;98729.88;;;7.19;69.24
18697;BME280;22617;43.690;27.956;2023-02-02T09:08:37;98712.56;;;7.14;69.67
18697;BME280;22617;43.690;27.956;2023-02-02T09:13:44;98725.59;;;7.35;68.37
18697;BME280;22617;43.690;27.956;2023-02-02T09:18:47;98732.00;;;6.52;69.83
18697;BME280;22617;43.690;27.956;2023-02-02T09:23:52;98738.44;;;5.94;70.69
18697;BME280;22617;43.690;27.956;2023-02-02T09:28:59;98718.84;;;6.22;71.59
18697;BME280;22617;43.690;27.956;2023-02-02T09:34:05;98711.16;;;6.28;71.90
18697;BME280;22617;43.690;27.956;2023-02-02T09:39:10;98686.75;;;7.33;69.39
18697;BME280;22617;43.690;27.956;2023-02-02T09:44:26;98685.09;;;7.66;69.14
18697;BME280;22617;43.690;27.956;2023-02-02T09:49:36;98682.56;;;8.23;67.79
18697;BME280;22617;43.690;27.956;2023-02-02T09:54:44;98666.09;;;8.70;66.19
18697;BME280;22617;43.690;27.956;2023-02-02T09:59:51;98651.44;;;8.43;65.93
18697;BME280;22617;43.690;27.956;2023-02-02T10:05:01;98649.69;;;8.35;64.87
18697;BME280;22617;43.690;27.956;2023-02-02T10:10:13;98634.97;;;8.23;66.18
18697;BME280;22617;43.690;27.956;2023-02-02T10:15:27;98629.69;;;8.84;64.96
18697;BME280;22617;43.690;27.956;2023-02-02T10:20:39;98639.06;;;9.21;64.03
18697;BME280;22617;43.690;27.956;2023-02-02T10:25:55;98645.00;;;9.53;63.54
18697;BME280;22617;43.690;27.956;2023-02-02T10:31:01;98643.94;;;9.80;62.09
18697;BME280;22617;43.690;27.956;2023-02-02T10:36:11;98643.19;;;9.68;61.72
18697;BME280;22617;43.690;27.956;2023-02-02T10:41:26;98642.03;;;10.05;61.99
18697;BME280;22617;43.690;27.956;2023-02-02T10:46:37;98651.38;;;10.33;62.82
18697;BME280;22617;43.690;27.956;2023-02-02T10:51:45;98646.63;;;9.70;61.89
18697;BME280;22617;43.690;27.956;2023-02-02T10:56:55;98652.06;;;9.30;62.99
18697;BME280;22617;43.690;27.956;2023-02-02T11:02:08;98635.75;;;8.89;61.83
18697;BME280;22617;43.690;27.956;2023-02-02T11:07:22;98622.34;;;9.64;60.24
18697;BME280;22617;43.690;27.956;2023-02-02T11:12:29;98652.28;;;8.45;62.67
18697;BME280;22617;43.690;27.956;2023-02-02T11:17:36;98651.41;;;7.98;66.75
18697;BME280;22617;43.690;27.956;2023-02-02T11:22:40;98649.59;;;7.50;66.39
18697;BME280;22617;43.690;27.956;2023-02-02T11:27:44;98635.78;;;7.63;67.23
18697;BME280;22617;43.690;27.956;2023-02-02T11:32:49;98632.38;;;7.77;67.01
18697;BME280;22617;43.690;27.956;2023-02-02T11:37:56;98608.00;;;9.01;65.39
18697;BME280;22617;43.690;27.956;2023-02-02T11:43:04;98607.81;;;9.39;63.13
18697;BME280;22617;43.690;27.956;2023-02-02T11:48:14;98612.69;;;9.88;62.22
18697;BME280;22617;43.690;27.956;2023-02-02T11:53:22;98606.53;;;9.95;62.70
18697;BME280;22617;43.690;27.956;2023-02-02T11:58:28;98602.75;;;9.10;64.01
18697;BME280;22617;43.690;27.956;2023-02-02T12:03:34;98598.59;;;8.61;64.67
18697;BME280;22617;43.690;27.956;2023-02-02T12:08:39;98585.66;;;8.26;64.49
18697;BME280;22617;43.690;27.956;2023-02-02T12:13:50;98578.75;;;8.11;63.90
18697;BME280;22617;43.690;27.956;2023-02-02T12:19:15;98593.47;;;7.99;64.27
18697;BME280;22617;43.690;27.956;2023-02-02T12:24:28;98562.31;;;8.20;63.93
18697;BME280;22617;43.690;27.956;2023-02-02T12:29:45;98558.84;;;8.24;62.91
18697;BME280;22617;43.690;27.956;2023-02-02T12:35:13;98572.72;;;7.83;64.76
18697;BME280;22617;43.690;27.956;2023-02-02T12:40:40;98586.53;;;7.63;65.58
18697;BME280;22617;43.690;27.956;2023-02-02T12:46:07;98589.09;;;7.49;66.58
18697;BME280;22617;43.690;27.956;2023-02-02T12:51:30;98577.00;;;7.39;66.70
18697;BME280;22617;43.690;27.956;2023-02-02T12:56:41;98578.69;;;7.22;68.58
18697;BME280;22617;43.690;27.956;2023-02-02T13:02:01;98584.72;;;7.21;68.15
18697;BME280;22617;43.690;27.956;2023-02-02T13:07:31;98579.53;;;7.21;68.71
18697;BME280;22617;43.690;27.956;2023-02-02T13:12:40;98577.81;;;7.21;67.95
18697;BME280;22617;43.690;27.956;2023-02-02T13:17:47;98580.41;;;7.17;68.67
18697;BME280;22617;43.690;27.956;2023-02-02T13:22:57;98571.72;;;7.03;69.38
18697;BME280;22617;43.690;27.956;2023-02-02T13:28:03;98576.91;;;6.99;69.42
18697;BME280;22617;43.690;27.956;2023-02-02T13:33:14;98563.91;;;6.92;68.88
18697;BME280;22617;43.690;27.956;2023-02-02T13:38:23;98555.25;;;6.87;69.19
18697;BME280;22617;43.690;27.956;2023-02-02T13:43:34;98555.28;;;6.88;68.86
18697;BME280;22617;43.690;27.956;2023-02-02T13:48:52;98554.38;;;6.77;69.79
18697;BME280;22617;43.690;27.956;2023-02-02T13:59:52;98547.44;;;6.73;70.85
18697;BME280;22617;43.690;27.956;2023-02-02T14:05:02;98545.72;;;6.72;69.06
18697;BME280;22617;43.690;27.956;2023-02-02T14:10:21;98539.66;;;6.72;67.60
18697;BME280;22617;43.690;27.956;2023-02-02T14:15:37;98535.31;;;6.58;68.09
18697;BME280;22617;43.690;27.956;2023-02-02T14:20:46;98546.50;;;6.51;67.62
18697;BME280;22617;43.690;27.956;2023-02-02T14:26:05;98552.53;;;6.47;66.64
18697;BME280;22617;43.690;27.956;2023-02-02T14:31:25;98555.09;;;6.41;66.75
18697;BME280;22617;43.690;27.956;2023-02-02T14:36:30;98576.44;;;6.08;69.69
18697;BME280;22617;43.690;27.956;2023-02-02T14:42:05;98609.50;;;5.45;75.05
18697;BME280;22617;43.690;27.956;2023-02-02T14:47:48;98575.28;;;4.87;79.16
18697;BME280;22617;43.690;27.956;2023-02-02T14:52:58;98580.38;;;4.81;80.23
18697;BME280;22617;43.690;27.956;2023-02-02T14:58:04;98590.78;;;4.87;79.77
18697;BME280;22617;43.690;27.956;2023-02-02T15:03:34;98601.84;;;4.77;80.09
18697;BME280;22617;43.690;27.956;2023-02-02T15:08:38;98600.69;;;4.54;80.57
18697;BME280;22617;43.690;27.956;2023-02-02T15:13:44;98604.00;;;4.47;80.75
18697;BME280;22617;43.690;27.956;2023-02-02T15:18:58;98604.84;;;4.44;80.63
18697;BME280;22617;43.690;27.956;2023-02-02T15:24:16;98612.63;;;4.46;80.60
18697;BME280;22617;43.690;27.956;2023-02-02T15:29:31;98618.50;;;4.35;80.63
18697;BME280;22617;43.690;27.956;2023-02-02T15:34:39;98614.09;;;4.28;81.09
18697;BME280;22617;43.690;27.956;2023-02-02T15:39:46;98617.56;;;4.30;81.62
18697;BME280;22617;43.690;27.956;2023-02-02T15:44:52;98611.56;;;4.31;82.14
18697;BME280;22617;43.690;27.956;2023-02-02T15:49:55;98633.75;;;4.20;81.90
18697;BME280;22617;43.690;27.956;2023-02-02T15:55:00;98643.97;;;4.14;81.75
18697;BME280;22617;43.690;27.956;2023-02-02T16:00:24;98636.28;;;4.19;81.87
18697;BME280;22617;43.690;27.956;2023-02-02T16:05:44;98646.50;;;4.13;81.42
18697;BME280;22617;43.690;27.956;2023-02-02T16:10:49;98660.13;;;4.03;81.78
18697;BME280;22617;43.690;27.956;2023-02-02T16:15:59;98666.00;;;3.95;81.74
18697;BME280;22617;43.690;27.956;2023-02-02T16:21:08;98684.81;;;3.90;81.70
18697;BME280;22617;43.690;27.956;2023-02-02T16:26:14;98683.06;;;3.89;81.94
18697;BME280;22617;43.690;27.956;2023-02-02T16:31:23;98694.16;;;3.85;82.56
18697;BME280;22617;43.690;27.956;2023-02-02T16:36:28;98694.25;;;3.88;82.88
18697;BME280;22617;43.690;27.956;2023-02-02T16:41:33;98689.00;;;3.85;82.79
18697;BME280;22617;43.690;27.956;2023-02-02T16:46:43;98692.53;;;3.90;82.62
18697;BME280;22617;43.690;27.956;2023-02-02T16:52:09;98694.28;;;3.91;82.85
18697;BME280;22617;43.690;27.956;2023-02-02T16:57:17;98700.41;;;3.98;82.55
18697;BME280;22617;43.690;27.956;2023-02-02T17:02:26;98703.94;;;4.04;82.35
18697;BME280;22617;43.690;27.956;2023-02-02T17:07:33;98697.13;;;4.08;82.14
18697;BME280;22617;43.690;27.956;2023-02-02T17:12:41;98694.53;;;4.06;81.89
18697;BME280;22617;43.690;27.956;2023-02-02T17:17:47;98698.00;;;4.08;80.98
18697;BME280;22617;43.690;27.956;2023-02-02T17:22:54;98698.03;;;4.10;80.69
18697;BME280;22617;43.690;27.956;2023-02-02T17:27:59;98695.50;;;4.11;80.71
18697;BME280;22617;43.690;27.956;2023-02-02T17:33:09;98700.63;;;4.10;80.75
18697;BME280;22617;43.690;27.956;2023-02-02T17:38:15;98710.84;;;4.05;80.96
18697;BME280;22617;43.690;27.956;2023-02-02T17:43:19;98702.28;;;4.06;80.73
18697;BME280;22617;43.690;27.956;2023-02-02T17:48:25;98693.53;;;3.98;80.87
18697;BME280;22617;43.690;27.956;2023-02-02T17:53:28;98696.84;;;3.91;80.90
18697;BME280;22617;43.690;27.956;2023-02-02T17:58:35;98700.03;;;3.76;80.79
18697;BME280;22617;43.690;27.956;2023-02-02T18:03:42;98708.41;;;3.63;81.32
18697;BME280;22617;43.690;27.956;2023-02-02T18:08:47;98698.72;;;3.50;81.77
18697;BME280;22617;43.690;27.956;2023-02-02T18:13:50;98710.72;;;3.49;81.88
18697;BME280;22617;43.690;27.956;2023-02-02T18:18:55;98713.78;;;3.30;81.50
18697;BME280;22617;43.690;27.956;2023-02-02T18:24:01;98733.47;;;3.28;82.07
18697;BME280;22617;43.690;27.956;2023-02-02T18:29:05;98721.38;;;3.24;81.86
18697;BME280;22617;43.690;27.956;2023-02-02T18:34:10;98722.88;;;3.15;82.82
18697;BME280;22617;43.690;27.956;2023-02-02T18:39:16;98738.38;;;3.16;82.04
18697;BME280;22617;43.690;27.956;2023-02-02T18:44:19;98734.50;;;2.97;82.81
18697;BME280;22617;43.690;27.956;2023-02-02T18:49:26;98728.53;;;2.97;83.25
18697;BME280;22617;43.690;27.956;2023-02-02T18:54:30;98732.63;;;2.89;83.23
18697;BME280;22617;43.690;27.956;2023-02-02T18:59:36;98723.97;;;2.85;83.98
18697;BME280;22617;43.690;27.956;2023-02-02T19:04:42;98713.81;;;2.91;84.13
18697;BME280;22617;43.690;27.956;2023-02-02T19:10:07;98723.88;;;2.81;84.10
18697;BME280;22617;43.690;27.956;2023-02-02T19:15:12;98717.75;;;2.76;83.84
18697;BME280;22617;43.690;27.956;2023-02-02T19:20:23;98729.69;;;2.72;84.46
18697;BME280;22617;43.690;27.956;2023-02-02T19:25:27;98732.97;;;2.67;84.52
18697;BME280;22617;43.690;27.956;2023-02-02T19:30:31;98737.25;;;2.66;84.29
18697;BME280;22617;43.690;27.956;2023-02-02T19:35:36;98752.63;;;2.63;84.73
18697;BME280;22617;43.690;27.956;2023-02-02T19:40:42;98752.53;;;2.58;84.18
18697;BME280;22617;43.690;27.956;2023-02-02T19:45:46;98759.13;;;2.47;84.44
18697;BME280;22617;43.690;27.956;2023-02-02T19:50:54;98753.81;;;2.41;84.64
18697;BME280;22617;43.690;27.956;2023-02-02T19:55:57;98745.13;;;2.36;84.55
18697;BME280;22617;43.690;27.956;2023-02-02T20:01:09;98744.19;;;2.33;84.30
18697;BME280;22617;43.690;27.956;2023-02-02T20:06:22;98758.56;;;2.25;84.27
18697;BME280;22617;43.690;27.956;2023-02-02T20:11:33;98748.25;;;2.23;84.59
18697;BME280;22617;43.690;27.956;2023-02-02T20:16:41;98751.41;;;2.13;84.31
18697;BME280;22617;43.690;27.956;2023-02-02T20:21:50;98756.59;;;2.14;84.47
18697;BME280;22617;43.690;27.956;2023-02-02T20:26:57;98767.59;;;2.09;84.07
18697;BME280;22617;43.690;27.956;2023-02-02T20:32:03;98773.66;;;2.12;83.99
18697;BME280;22617;43.690;27.956;2023-02-02T20:37:19;98785.53;;;2.07;84.14
18697;BME280;22617;43.690;27.956;2023-02-02T20:42:24;98782.00;;;2.04;83.81
18697;BME280;22617;43.690;27.956;2023-02-02T20:47:27;98787.97;;;2.03;83.46
18697;BME280;22617;43.690;27.956;2023-02-02T20:52:32;98797.28;;;1.98;83.47
18697;BME280;22617;43.690;27.956;2023-02-02T20:57:36;98796.22;;;1.90;83.21
18697;BME280;22617;43.690;27.956;2023-02-02T21:02:41;98800.41;;;1.88;83.19
18697;BME280;22617;43.690;27.956;2023-02-02T21:07:46;98792.41;;;1.75;83.11
18697;BME280;22617;43.690;27.956;2023-02-02T21:12:55;98794.09;;;1.75;83.34
18697;BME280;22617;43.690;27.956;2023-02-02T21:17:59;98788.13;;;1.76;83.48
18697;BME280;22617;43.690;27.956;2023-02-02T21:23:04;98789.75;;;1.72;83.45
18697;BME280;22617;43.690;27.956;2023-02-02T21:28:09;98802.75;;;1.79;83.21
18697;BME280;22617;43.690;27.956;2023-02-02T21:33:12;98812.13;;;1.77;83.14
18697;BME280;22617;43.690;27.956;2023-02-02T21:38:17;98807.59;;;1.68;83.24
18697;BME280;22617;43.690;27.956;2023-02-02T21:43:21;98823.75;;;1.64;83.31
18697;BME280;22617;43.690;27.956;2023-02-02T21:48:28;98826.31;;;1.64;83.36
18697;BME280;22617;43.690;27.956;2023-02-02T21:53:36;98831.56;;;1.68;83.17
18697;BME280;22617;43.690;27.956;2023-02-02T21:58:40;98838.25;;;1.62;83.12
18697;BME280;22617;43.690;27.956;2023-02-02T22:03:45;98831.41;;;1.62;83.04
18697;BME280;22617;43.690;27.956;2023-02-02T22:08:55;98827.94;;;1.60;82.86
18697;BME280;22617;43.690;27.956;2023-02-02T22:14:13;98837.19;;;1.55;82.92
18697;BME280;22617;43.690;27.956;2023-02-02T22:19:27;98833.00;;;1.57;82.88
18697;BME280;22617;43.690;27.956;2023-02-02T22:24:33;98833.81;;;1.56;82.70
18697;BME280;22617;43.690;27.956;2023-02-02T22:29:36;98825.97;;;1.52;82.88
18697;BME280;22617;43.690;27.956;2023-02-02T22:34:40;98823.28;;;1.47;82.74
18697;BME280;22617;43.690;27.956;2023-02-02T22:39:45;98812.88;;;1.43;82.89
18697;BME280;22617;43.690;27.956;2023-02-02T22:44:48;98816.25;;;1.42;82.88
18697;BME280;22617;43.690;27.956;2023-02-02T22:49:52;98813.63;;;1.40;83.06
18697;BME280;22617;43.690;27.956;2023-02-02T22:54:57;98813.44;;;1.33;83.32
18697;BME280;22617;43.690;27.956;2023-02-02T23:00:01;98821.25;;;1.37;83.20
18697;BME280;22617;43.690;27.956;2023-02-02T23:05:05;98826.47;;;1.40;83.17
18697;BME280;22617;43.690;27.956;2023-02-02T23:10:12;98827.28;;;1.39;83.00
18697;BME280;22617;43.690;27.956;2023-02-02T23:15:16;98832.28;;;1.33;82.69
18697;BME280;22617;43.690;27.956;2023-02-02T23:20:20;98837.50;;;1.36;83.03
18697;BME280;22617;43.690;27.956;2023-02-02T23:25:25;98850.31;;;1.36;83.10
18697;BME280;22617;43.690;27.956;2023-02-02T23:30:28;98856.00;;;1.26;82.95
18697;BME280;22617;43.690;27.956;2023-02-02T23:35:32;98847.69;;;1.33;82.82
18697;BME280;22617;43.690;27.956;2023-02-02T23:40:37;98845.94;;;1.32;82.76
18697;BME280;22617;43.690;27.956;2023-02-02T23:45:40;98856.13;;;1.29;83.04
18697;BME280;22617;43.690;27.956;2023-02-02T23:50:44;98854.19;;;1.22;82.78
18697;BME280;22617;43.690;27.956;2023-02-02T23:55:49;98851.66;;;1.23;82.95
